sensor_id;sensor_type;location;lat;lon;timestamp;pressure;altitude;pressure_sealevel;temperature;humidity
2036;BME280;23642;42.658;23.350;2023-03-03T00:00:45;48993.13;;;-146.31;96.13
2036;BME280;23642;42.658;23.350;2023-03-03T00:03:15;48962.19;;;-146.31;95.66
2036;BME280;23642;42.658;23.350;2023-03-03T00:05:43;48962.19;;;-146.31;95.83
2036;BME280;23642;42.658;23.350;2023-03-03T00:08:11;48943.66;;;-146.31;96.04
2036;BME280;23642;42.658;23.350;2023-03-03T00:10:38;48958.09;;;-146.31;95.59
2036;BME280;23642;42.658;23.350;2023-03-03T00:13:12;48945.72;;;-146.31;95.83
2036;BME280;23642;42.658;23.350;2023-03-03T00:15:40;48947.78;;;-146.31;95.56
2036;BME280;23642;42.658;23.350;2023-03-03T00:18:17;48906.53;;;-146.31;96.41
2036;BME280;23642;42.658;23.350;2023-03-03T00:20:47;48836.47;;;-146.31;96.39
2036;BME280;23642;42.658;23.350;2023-03-03T00:23:21;48836.47;;;-146.31;96.11
2036;BME280;23642;42.658;23.350;2023-03-03T00:25:50;48830.28;;;-146.31;95.89
2036;BME280;23642;42.658;23.350;2023-03-03T00:28:24;48813.78;;;-146.31;96.24
2036;BME280;23642;42.658;23.350;2023-03-03T00:30:53;48828.22;;;-146.31;96.14
2036;BME280;23642;42.658;23.350;2023-03-03T00:33:31;48805.53;;;-146.31;96.10
2036;BME280;23642;42.658;23.350;2023-03-03T00:36:20;48828.22;;;-146.31;96.32
2036;BME280;23642;42.658;23.350;2023-03-03T00:38:49;48762.25;;;-146.31;96.52
2036;BME280;23642;42.658;23.350;2023-03-03T00:41:19;48758.13;;;-146.31;96.35
2036;BME280;23642;42.658;23.350;2023-03-03T00:43:48;48778.75;;;-146.31;96.09
2036;BME280;23642;42.658;23.350;2023-03-03T00:46:17;48782.84;;;-146.31;96.32
2036;BME280;23642;42.658;23.350;2023-03-03T00:48:45;48743.69;;;-146.31;96.39
2036;BME280;23642;42.658;23.350;2023-03-03T00:51:25;48723.06;;;-146.31;96.38
2036;BME280;23642;42.658;23.350;2023-03-03T00:53:54;48694.22;;;-146.31;96.78
2036;BME280;23642;42.658;23.350;2023-03-03T00:56:22;48733.38;;;-146.31;96.31
2036;BME280;23642;42.658;23.350;2023-03-03T00:58:49;48644.75;;;-146.31;96.76
2036;BME280;23642;42.658;23.350;2023-03-03T01:01:17;48642.69;;;-146.31;96.85
2036;BME280;23642;42.658;23.350;2023-03-03T01:03:44;48679.78;;;-146.31;96.70
2036;BME280;23642;42.658;23.350;2023-03-03T01:06:11;48611.78;;;-146.31;96.89
2036;BME280;23642;42.658;23.350;2023-03-03T01:08:38;48603.53;;;-146.31;97.06
2036;BME280;23642;42.658;23.350;2023-03-03T01:11:09;48620.00;;;-146.31;96.59
2036;BME280;23642;42.658;23.350;2023-03-03T01:13:40;48622.06;;;-146.31;97.06
2036;BME280;23642;42.658;23.350;2023-03-03T01:16:07;48576.72;;;-146.31;96.93
2036;BME280;23642;42.658;23.350;2023-03-03T01:18:35;48566.41;;;-146.31;96.84
2036;BME280;23642;42.658;23.350;2023-03-03T01:21:02;48580.84;;;-146.31;96.86
2036;BME280;23642;42.658;23.350;2023-03-03T01:23:29;48584.97;;;-146.31;96.97
2036;BME280;23642;42.658;23.350;2023-03-03T01:25:56;48531.38;;;-146.31;96.76
2036;BME280;23642;42.658;23.350;2023-03-03T01:28:25;48566.41;;;-146.31;96.35
2036;BME280;23642;42.658;23.350;2023-03-03T01:30:52;48582.91;;;-146.31;96.41
2036;BME280;23642;42.658;23.350;2023-03-03T01:33:19;48580.84;;;-146.31;96.66
2036;BME280;23642;42.658;23.350;2023-03-03T01:35:47;48552.00;;;-146.31;96.76
2036;BME280;23642;42.658;23.350;2023-03-03T01:38:14;48525.19;;;-146.31;97.06
2036;BME280;23642;42.658;23.350;2023-03-03T01:40:41;48506.66;;;-146.31;97.48
2036;BME280;23642;42.658;23.350;2023-03-03T01:43:13;48500.47;;;-146.31;97.50
2036;BME280;23642;42.658;23.350;2023-03-03T01:46:27;48471.59;;;-146.31;97.26
2036;BME280;23642;42.658;23.350;2023-03-03T01:48:58;48444.81;;;-146.31;97.37
2036;BME280;23642;42.658;23.350;2023-03-03T01:51:29;48409.78;;;-146.31;97.26
2036;BME280;23642;42.658;23.350;2023-03-03T01:53:59;48362.38;;;-146.31;97.62
2036;BME280;23642;42.658;23.350;2023-03-03T01:56:27;48304.66;;;-146.31;98.23
2036;BME280;23642;42.658;23.350;2023-03-03T01:58:59;48300.53;;;-146.31;98.18
2036;BME280;23642;42.658;23.350;2023-03-03T02:01:29;48279.91;;;-146.31;97.99
2036;BME280;23642;42.658;23.350;2023-03-03T02:03:57;48292.28;;;-146.31;97.99
2036;BME280;23642;42.658;23.350;2023-03-03T02:06:26;48251.06;;;-146.31;98.25
2036;BME280;23642;42.658;23.350;2023-03-03T02:08:59;48242.81;;;-146.31;98.09
2036;BME280;23642;42.658;23.350;2023-03-03T02:11:29;48176.88;;;-146.31;98.71
2036;BME280;23642;42.658;23.350;2023-03-03T02:13:57;48145.94;;;-146.31;98.48
2036;BME280;23642;42.658;23.350;2023-03-03T02:16:24;48154.19;;;-146.31;98.24
2036;BME280;23642;42.658;23.350;2023-03-03T02:18:52;48168.63;;;-146.31;97.54
2036;BME280;23642;42.658;23.350;2023-03-03T02:21:20;48189.22;;;-146.31;97.71
2036;BME280;23642;42.658;23.350;2023-03-03T02:23:51;48152.13;;;-146.31;98.18
2036;BME280;23642;42.658;23.350;2023-03-03T02:26:22;48211.91;;;-146.31;97.80
2036;BME280;23642;42.658;23.350;2023-03-03T02:28:50;48234.56;;;-146.31;96.87
2036;BME280;23642;42.658;23.350;2023-03-03T02:31:18;48263.44;;;-146.31;97.15
2036;BME280;23642;42.658;23.350;2023-03-03T02:33:47;48304.66;;;-146.31;96.62
2036;BME280;23642;42.658;23.350;2023-03-03T02:36:16;48325.25;;;-146.31;96.48
2036;BME280;23642;42.658;23.350;2023-03-03T02:38:48;48319.09;;;-146.31;96.64
2036;BME280;23642;42.658;23.350;2023-03-03T02:41:26;48403.59;;;-146.31;95.87
2036;BME280;23642;42.658;23.350;2023-03-03T02:43:58;48413.91;;;-146.31;96.33
2036;BME280;23642;42.658;23.350;2023-03-03T02:46:27;48420.06;;;-146.31;96.06
2036;BME280;23642;42.658;23.350;2023-03-03T02:48:55;48418.00;;;-146.31;96.18
2036;BME280;23642;42.658;23.350;2023-03-03T02:51:22;48407.72;;;-146.31;96.38
2036;BME280;23642;42.658;23.350;2023-03-03T02:53:49;48444.81;;;-146.31;95.99
2036;BME280;23642;42.658;23.350;2023-03-03T02:56:16;48442.75;;;-146.31;95.99
2036;BME280;23642;42.658;23.350;2023-03-03T02:58:44;48481.91;;;-146.31;95.51
2036;BME280;23642;42.658;23.350;2023-03-03T03:01:11;48438.63;;;-146.31;96.15
2036;BME280;23642;42.658;23.350;2023-03-03T03:03:39;48366.47;;;-146.31;96.31
2036;BME280;23642;42.658;23.350;2023-03-03T03:06:06;48395.34;;;-146.31;96.29
2036;BME280;23642;42.658;23.350;2023-03-03T03:08:35;48411.84;;;-146.31;96.52
2036;BME280;23642;42.658;23.350;2023-03-03T03:11:02;48387.09;;;-146.31;96.75
2036;BME280;23642;42.658;23.350;2023-03-03T03:13:30;48380.91;;;-146.31;96.54
2036;BME280;23642;42.658;23.350;2023-03-03T03:15:59;48399.47;;;-146.31;96.30
2036;BME280;23642;42.658;23.350;2023-03-03T03:18:27;48366.47;;;-146.31;96.66
2036;BME280;23642;42.658;23.350;2023-03-03T03:20:53;48319.09;;;-146.31;97.33
2036;BME280;23642;42.658;23.350;2023-03-03T03:23:20;48236.63;;;-146.31;97.75
2036;BME280;23642;42.658;23.350;2023-03-03T03:25:47;48222.22;;;-146.31;97.66
2036;BME280;23642;42.658;23.350;2023-03-03T03:28:15;48230.44;;;-146.31;97.33
2036;BME280;23642;42.658;23.350;2023-03-03T03:30:50;48185.13;;;-146.31;97.56
2036;BME280;23642;42.658;23.350;2023-03-03T03:33:18;48199.53;;;-146.31;97.87
2036;BME280;23642;42.658;23.350;2023-03-03T03:35:45;48156.25;;;-146.31;98.12
2036;BME280;23642;42.658;23.350;2023-03-03T03:38:13;48154.19;;;-146.31;97.53
2036;BME280;23642;42.658;23.350;2023-03-03T03:40:41;48117.09;;;-146.31;97.88
2036;BME280;23642;42.658;23.350;2023-03-03T03:43:08;48053.22;;;-146.31;98.26
2036;BME280;23642;42.658;23.350;2023-03-03T03:45:35;47962.53;;;-146.31;99.05
2036;BME280;23642;42.658;23.350;2023-03-03T03:48:02;47892.47;;;-146.31;98.64
2036;BME280;23642;42.658;23.350;2023-03-03T03:50:31;47826.50;;;-146.31;99.51
2036;BME280;23642;42.658;23.350;2023-03-03T03:52:58;47692.56;;;-146.31;99.68
2036;BME280;23642;42.658;23.350;2023-03-03T03:55:25;47618.38;;;-146.31;99.86
2036;BME280;23642;42.658;23.350;2023-03-03T03:57:52;47525.66;;;-146.31;100.00
2036;BME280;23642;42.658;23.350;2023-03-03T04:00:19;47488.56;;;-146.31;100.00
2036;BME280;23642;42.658;23.350;2023-03-03T04:02:46;47371.09;;;-146.31;100.00
2036;BME280;23642;42.658;23.350;2023-03-03T04:05:14;47255.72;;;-146.31;100.00
2036;BME280;23642;42.658;23.350;2023-03-03T04:07:42;47191.84;;;-146.31;100.00
2036;BME280;23642;42.658;23.350;2023-03-03T04:10:10;47105.31;;;-146.31;100.00
2036;BME280;23642;42.658;23.350;2023-03-03T04:12:36;47006.41;;;-146.31;100.00
2036;BME280;23642;42.658;23.350;2023-03-03T04:15:05;47006.41;;;-146.31;100.00
2036;BME280;23642;42.658;23.350;2023-03-03T04:17:32;46899.28;;;-146.31;100.00
2036;BME280;23642;42.658;23.350;2023-03-03T04:19:59;46779.78;;;-146.31;100.00
2036;BME280;23642;42.658;23.350;2023-03-03T04:22:27;46627.34;;;-146.31;100.00
2036;BME280;23642;42.658;23.350;2023-03-03T04:24:55;46602.63;;;-146.31;100.00
2036;BME280;23642;42.658;23.350;2023-03-03T04:27:21;46571.72;;;-146.31;100.00
2036;BME280;23642;42.658;23.350;2023-03-03T04:29:48;46516.09;;;-146.31;100.00
2036;BME280;23642;42.658;23.350;2023-03-03T04:32:21;46361.59;;;-146.31;100.00
2036;BME280;23642;42.658;23.350;2023-03-03T04:34:48;46264.78;;;-146.31;100.00
2036;BME280;23642;42.658;23.350;2023-03-03T04:37:15;46192.69;;;-146.31;100.00
2036;BME280;23642;42.658;23.350;2023-03-03T04:39:42;46118.53;;;-146.31;100.00
2036;BME280;23642;42.658;23.350;2023-03-03T04:42:11;46001.16;;;-146.31;100.00
2036;BME280;23642;42.658;23.350;2023-03-03T04:44:38;45906.41;;;-146.31;100.00
2036;BME280;23642;42.658;23.350;2023-03-03T04:47:05;45927.00;;;-146.31;100.00
2036;BME280;23642;42.658;23.350;2023-03-03T04:49:32;46029.97;;;-146.31;100.00
2036;BME280;23642;42.658;23.350;2023-03-03T04:51:59;46073.22;;;-146.31;100.00
2036;BME280;23642;42.658;23.350;2023-03-03T04:54:26;46079.41;;;-146.31;100.00
2036;BME280;23642;42.658;23.350;2023-03-03T04:56:53;45980.53;;;-146.31;100.00
2036;BME280;23642;42.658;23.350;2023-03-03T04:59:21;45840.50;;;-146.31;100.00
2036;BME280;23642;42.658;23.350;2023-03-03T05:01:49;45706.63;;;-146.31;100.00
2036;BME280;23642;42.658;23.350;2023-03-03T05:04:16;45527.44;;;-146.31;100.00
2036;BME280;23642;42.658;23.350;2023-03-03T05:06:43;45506.84;;;-146.31;100.00
2036;BME280;23642;42.658;23.350;2023-03-03T05:09:10;45403.88;;;-146.31;100.00
2036;BME280;23642;42.658;23.350;2023-03-03T05:11:36;45420.38;;;-146.31;100.00
2036;BME280;23642;42.658;23.350;2023-03-03T05:14:03;45490.38;;;-146.31;100.00
2036;BME280;23642;42.658;23.350;2023-03-03T05:16:33;45568.63;;;-146.31;100.00
2036;BME280;23642;42.658;23.350;2023-03-03T05:19:00;45562.47;;;-146.31;100.00
2036;BME280;23642;42.658;23.350;2023-03-03T05:21:27;45675.72;;;-146.31;100.00
2036;BME280;23642;42.658;23.350;2023-03-03T05:23:54;45702.50;;;-146.31;100.00
2036;BME280;23642;42.658;23.350;2023-03-03T05:26:20;45712.81;;;-146.31;100.00
2036;BME280;23642;42.658;23.350;2023-03-03T05:28:50;45749.88;;;-146.31;100.00
2036;BME280;23642;42.658;23.350;2023-03-03T05:31:17;45766.34;;;-146.31;100.00
2036;BME280;23642;42.658;23.350;2023-03-03T05:33:45;45836.38;;;-146.31;100.00
2036;BME280;23642;42.658;23.350;2023-03-03T05:36:11;45712.81;;;-146.31;100.00
2036;BME280;23642;42.658;23.350;2023-03-03T05:38:38;45692.19;;;-146.31;100.00
2036;BME280;23642;42.658;23.350;2023-03-03T05:41:05;45795.19;;;-146.31;100.00
2036;BME280;23642;42.658;23.350;2023-03-03T05:43:32;45859.03;;;-146.31;100.00
2036;BME280;23642;42.658;23.350;2023-03-03T05:45:58;45955.84;;;-146.31;100.00
2036;BME280;23642;42.658;23.350;2023-03-03T05:48:25;45980.53;;;-146.31;100.00
2036;BME280;23642;42.658;23.350;2023-03-03T05:50:57;46023.81;;;-146.31;100.00
2036;BME280;23642;42.658;23.350;2023-03-03T05:53:24;46176.22;;;-146.31;100.00
2036;BME280;23642;42.658;23.350;2023-03-03T05:55:51;46221.53;;;-146.31;100.00
2036;BME280;23642;42.658;23.350;2023-03-03T05:58:18;46382.22;;;-146.31;100.00
2036;BME280;23642;42.658;23.350;2023-03-03T06:00:45;46363.66;;;-146.31;100.00
2036;BME280;23642;42.658;23.350;2023-03-03T06:03:12;46338.94;;;-146.31;100.00
2036;BME280;23642;42.658;23.350;2023-03-03T06:05:39;46406.94;;;-146.31;100.00
2036;BME280;23642;42.658;23.350;2023-03-03T06:08:08;46425.47;;;-146.31;100.00
2036;BME280;23642;42.658;23.350;2023-03-03T06:10:35;46454.31;;;-146.31;100.00
2036;BME280;23642;42.658;23.350;2023-03-03T06:13:04;46476.97;;;-146.31;100.00
2036;BME280;23642;42.658;23.350;2023-03-03T06:15:31;46423.41;;;-146.31;100.00
2036;BME280;23642;42.658;23.350;2023-03-03T06:17:57;46474.91;;;-146.31;100.00
2036;BME280;23642;42.658;23.350;2023-03-03T06:20:24;46555.25;;;-146.31;100.00
2036;BME280;23642;42.658;23.350;2023-03-03T06:22:51;46489.31;;;-146.31;100.00
2036;BME280;23642;42.658;23.350;2023-03-03T06:25:19;46495.50;;;-146.31;100.00
2036;BME280;23642;42.658;23.350;2023-03-03T06:27:46;46450.19;;;-146.31;100.00
2036;BME280;23642;42.658;23.350;2023-03-03T06:30:14;46303.94;;;-146.31;100.00
2036;BME280;23642;42.658;23.350;2023-03-03T06:32:41;46357.47;;;-146.31;100.00
2036;BME280;23642;42.658;23.350;2023-03-03T06:35:08;46378.09;;;-146.31;100.00
2036;BME280;23642;42.658;23.350;2023-03-03T06:37:35;46466.66;;;-146.31;100.00
2036;BME280;23642;42.658;23.350;2023-03-03T06:40:03;46514.03;;;-146.31;100.00
2036;BME280;23642;42.658;23.350;2023-03-03T06:42:32;46594.38;;;-146.31;99.64
2036;BME280;23642;42.658;23.350;2023-03-03T06:45:02;46639.72;;;-146.31;99.36
2036;BME280;23642;42.658;23.350;2023-03-03T06:47:29;46652.06;;;-146.31;99.80
2036;BME280;23642;42.658;23.350;2023-03-03T06:49:56;46678.84;;;-146.31;99.69
2036;BME280;23642;42.658;23.350;2023-03-03T06:52:25;46734.47;;;-146.31;99.16
2036;BME280;23642;42.658;23.350;2023-03-03T06:54:53;46870.44;;;-146.31;98.21
2036;BME280;23642;42.658;23.350;2023-03-03T06:57:25;46884.88;;;-146.31;99.12
2036;BME280;23642;42.658;23.350;2023-03-03T06:59:55;46814.81;;;-146.31;99.88
2036;BME280;23642;42.658;23.350;2023-03-03T07:02:23;46796.28;;;-146.31;99.33
2036;BME280;23642;42.658;23.350;2023-03-03T07:04:49;46903.41;;;-146.31;98.73
2036;BME280;23642;42.658;23.350;2023-03-03T07:07:18;47022.91;;;-146.31;97.96
2036;BME280;23642;42.658;23.350;2023-03-03T07:09:47;47119.72;;;-146.31;97.17
2036;BME280;23642;42.658;23.350;2023-03-03T07:12:15;47204.22;;;-146.31;97.24
2036;BME280;23642;42.658;23.350;2023-03-03T07:14:47;47195.97;;;-146.31;97.46
2036;BME280;23642;42.658;23.350;2023-03-03T07:17:18;47369.06;;;-146.31;95.69
2036;BME280;23642;42.658;23.350;2023-03-03T07:19:46;47542.13;;;-146.31;95.00
2036;BME280;23642;42.658;23.350;2023-03-03T07:22:16;47498.88;;;-146.31;95.46
2036;BME280;23642;42.658;23.350;2023-03-03T07:24:45;47457.66;;;-146.31;96.34
2036;BME280;23642;42.658;23.350;2023-03-03T07:27:18;47513.28;;;-146.31;95.79
2036;BME280;23642;42.658;23.350;2023-03-03T07:29:49;47496.81;;;-146.31;96.17
2036;BME280;23642;42.658;23.350;2023-03-03T07:32:34;47465.91;;;-146.31;96.35
2036;BME280;23642;42.658;23.350;2023-03-03T07:35:28;47556.56;;;-146.31;95.56
2036;BME280;23642;42.658;23.350;2023-03-03T07:37:56;47451.47;;;-146.31;97.11
2036;BME280;23642;42.658;23.350;2023-03-03T07:40:34;47402.03;;;-146.31;97.36
2036;BME280;23642;42.658;23.350;2023-03-03T07:43:22;47358.75;;;-146.31;97.50
2036;BME280;23642;42.658;23.350;2023-03-03T07:45:54;47288.69;;;-146.31;97.27
2036;BME280;23642;42.658;23.350;2023-03-03T07:48:30;47377.28;;;-146.31;97.06
2036;BME280;23642;42.658;23.350;2023-03-03T07:51:03;47614.25;;;-146.31;95.11
2036;BME280;23642;42.658;23.350;2023-03-03T07:53:33;47564.81;;;-146.31;95.81
2036;BME280;23642;42.658;23.350;2023-03-03T07:56:10;47632.81;;;-146.31;95.37
2036;BME280;23642;42.658;23.350;2023-03-03T07:58:41;47671.97;;;-146.31;94.73
2036;BME280;23642;42.658;23.350;2023-03-03T08:01:31;47573.03;;;-146.31;96.33
2036;BME280;23642;42.658;23.350;2023-03-03T08:04:14;47700.81;;;-146.31;94.74
2036;BME280;23642;42.658;23.350;2023-03-03T08:06:47;47729.66;;;-146.31;94.61
2036;BME280;23642;42.658;23.350;2023-03-03T08:09:36;47775.00;;;-146.31;94.72
2036;BME280;23642;42.658;23.350;2023-03-03T08:12:30;47694.63;;;-146.31;95.29
2036;BME280;23642;42.658;23.350;2023-03-03T08:15:10;47620.44;;;-146.31;96.46
2036;BME280;23642;42.658;23.350;2023-03-03T08:17:41;47566.88;;;-146.31;96.82
2036;BME280;23642;42.658;23.350;2023-03-03T08:20:42;47556.56;;;-146.31;96.69
2036;BME280;23642;42.658;23.350;2023-03-03T08:23:10;47441.16;;;-146.31;97.79
2036;BME280;23642;42.658;23.350;2023-03-03T08:25:37;47515.34;;;-146.31;96.86
2036;BME280;23642;42.658;23.350;2023-03-03T08:28:05;47496.81;;;-146.31;96.79
2036;BME280;23642;42.658;23.350;2023-03-03T08:30:32;47447.34;;;-146.31;97.71
2036;BME280;23642;42.658;23.350;2023-03-03T08:32:59;47445.28;;;-146.31;97.34
2036;BME280;23642;42.658;23.350;2023-03-03T08:35:26;47430.88;;;-146.31;97.20
2036;BME280;23642;42.658;23.350;2023-03-03T08:37:55;47393.78;;;-146.31;97.65
2036;BME280;23642;42.658;23.350;2023-03-03T08:40:29;47406.13;;;-146.31;97.34
2036;BME280;23642;42.658;23.350;2023-03-03T08:42:56;47441.16;;;-146.31;97.56
2036;BME280;23642;42.658;23.350;2023-03-03T08:45:23;47373.16;;;-146.31;98.08
2036;BME280;23642;42.658;23.350;2023-03-03T08:47:50;47323.72;;;-146.31;98.12
2036;BME280;23642;42.658;23.350;2023-03-03T08:50:18;47329.91;;;-146.31;97.86
2036;BME280;23642;42.658;23.350;2023-03-03T08:52:51;47237.19;;;-146.31;98.54
2036;BME280;23642;42.658;23.350;2023-03-03T08:55:19;47410.25;;;-146.31;97.25
2036;BME280;23642;42.658;23.350;2023-03-03T08:57:46;47455.59;;;-146.31;96.66
2036;BME280;23642;42.658;23.350;2023-03-03T09:02:42;47715.22;;;-146.31;95.04
2036;BME280;23642;42.658;23.350;2023-03-03T09:05:09;47610.13;;;-146.31;96.54
2036;BME280;23642;42.658;23.350;2023-03-03T09:07:37;47579.22;;;-146.31;96.39
2036;BME280;23642;42.658;23.350;2023-03-03T09:10:05;47641.03;;;-146.31;95.40
2036;BME280;23642;42.658;23.350;2023-03-03T09:12:35;47840.94;;;-146.31;94.02
2036;BME280;23642;42.658;23.350;2023-03-03T09:15:14;47923.38;;;-146.31;93.47
2036;BME280;23642;42.658;23.350;2023-03-03T09:17:42;48003.75;;;-146.31;93.04
2036;BME280;23642;42.658;23.350;2023-03-03T09:20:22;47979.03;;;-146.31;93.74
2036;BME280;23642;42.658;23.350;2023-03-03T09:22:49;48063.50;;;-146.31;92.99
2036;BME280;23642;42.658;23.350;2023-03-03T09:25:21;48090.31;;;-146.31;93.01
2036;BME280;23642;42.658;23.350;2023-03-03T09:27:51;48040.84;;;-146.31;93.09
2036;BME280;23642;42.658;23.350;2023-03-03T09:30:31;47931.63;;;-146.31;95.20
2036;BME280;23642;42.658;23.350;2023-03-03T09:33:01;47904.81;;;-146.31;94.86
2036;BME280;23642;42.658;23.350;2023-03-03T09:35:42;48156.25;;;-146.31;91.96
2036;BME280;23642;42.658;23.350;2023-03-03T09:38:25;48209.84;;;-146.31;92.08
2036;BME280;23642;42.658;23.350;2023-03-03T09:41:09;48218.09;;;-146.31;91.59
2036;BME280;23642;42.658;23.350;2023-03-03T09:43:47;48343.81;;;-146.31;90.32
2036;BME280;23642;42.658;23.350;2023-03-03T09:46:21;48434.50;;;-146.31;89.62
2036;BME280;23642;42.658;23.350;2023-03-03T09:49:01;48597.34;;;-146.31;87.69
2036;BME280;23642;42.658;23.350;2023-03-03T09:51:56;48671.53;;;-146.31;87.61
2036;BME280;23642;42.658;23.350;2023-03-03T09:54:40;48622.06;;;-146.31;88.40
2036;BME280;23642;42.658;23.350;2023-03-03T09:57:13;48867.38;;;-146.31;85.87
2036;BME280;23642;42.658;23.350;2023-03-03T10:00:02;48984.88;;;-146.31;85.54
2036;BME280;23642;42.658;23.350;2023-03-03T10:02:42;48989.00;;;-146.31;86.37
2036;BME280;23642;42.658;23.350;2023-03-03T10:05:20;49019.94;;;-146.31;86.02
2036;BME280;23642;42.658;23.350;2023-03-03T10:08:01;49071.47;;;-146.31;86.17
2036;BME280;23642;42.658;23.350;2023-03-03T10:10:45;49022.00;;;-146.31;87.58
2036;BME280;23642;42.658;23.350;2023-03-03T10:13:26;48966.31;;;-146.31;88.39
2036;BME280;23642;42.658;23.350;2023-03-03T10:16:12;49026.13;;;-146.31;87.23
2036;BME280;23642;42.658;23.350;2023-03-03T10:18:47;49137.44;;;-146.31;84.84
2036;BME280;23642;42.658;23.350;2023-03-03T10:21:21;49137.44;;;-146.31;85.87
2036;BME280;23642;42.658;23.350;2023-03-03T10:23:54;49149.81;;;-146.31;86.48
2036;BME280;23642;42.658;23.350;2023-03-03T10:26:30;49100.31;;;-146.31;87.03
2036;BME280;23642;42.658;23.350;2023-03-03T10:29:13;49104.44;;;-146.31;87.32
2036;BME280;23642;42.658;23.350;2023-03-03T10:31:57;49096.19;;;-146.31;88.29
2036;BME280;23642;42.658;23.350;2023-03-03T10:34:46;49022.00;;;-146.31;89.79
2036;BME280;23642;42.658;23.350;2023-03-03T10:37:18;48997.25;;;-146.31;89.82
2036;BME280;23642;42.658;23.350;2023-03-03T10:40:02;49059.09;;;-146.31;89.04
2036;BME280;23642;42.658;23.350;2023-03-03T10:42:56;49026.13;;;-146.31;89.64
2036;BME280;23642;42.658;23.350;2023-03-03T10:45:41;49017.88;;;-146.31;89.04
2036;BME280;23642;42.658;23.350;2023-03-03T10:48:26;49024.06;;;-146.31;89.79
2036;BME280;23642;42.658;23.350;2023-03-03T10:51:01;48989.00;;;-146.31;90.12
2036;BME280;23642;42.658;23.350;2023-03-03T10:53:34;48989.00;;;-146.31;89.24
2036;BME280;23642;42.658;23.350;2023-03-03T10:56:19;49011.69;;;-146.31;88.98
2036;BME280;23642;42.658;23.350;2023-03-03T10:58:55;49022.00;;;-146.31;87.94
2036;BME280;23642;42.658;23.350;2023-03-03T11:01:35;49102.38;;;-146.31;87.79
2036;BME280;23642;42.658;23.350;2023-03-03T11:04:23;49090.03;;;-146.31;88.78
2036;BME280;23642;42.658;23.350;2023-03-03T11:06:56;49071.47;;;-146.31;89.31
2036;BME280;23642;42.658;23.350;2023-03-03T11:09:38;49017.88;;;-146.31;90.21
2036;BME280;23642;42.658;23.350;2023-03-03T11:12:21;48956.03;;;-146.31;90.07
2036;BME280;23642;42.658;23.350;2023-03-03T11:15:02;49017.88;;;-146.31;89.23
2036;BME280;23642;42.658;23.350;2023-03-03T11:17:46;48997.25;;;-146.31;90.07
2036;BME280;23642;42.658;23.350;2023-03-03T11:20:27;48972.50;;;-146.31;90.65
2036;BME280;23642;42.658;23.350;2023-03-03T11:23:01;48968.38;;;-146.31;90.34
2036;BME280;23642;42.658;23.350;2023-03-03T11:25:34;49005.50;;;-146.31;89.17
2036;BME280;23642;42.658;23.350;2023-03-03T11:28:31;49019.94;;;-146.31;90.04
2036;BME280;23642;42.658;23.350;2023-03-03T11:31:14;48968.38;;;-146.31;90.72
2036;BME280;23642;42.658;23.350;2023-03-03T11:33:46;48923.03;;;-146.31;91.39
2036;BME280;23642;42.658;23.350;2023-03-03T11:36:22;48898.28;;;-146.31;91.62
2036;BME280;23642;42.658;23.350;2023-03-03T11:38:55;48813.78;;;-146.31;92.72
2036;BME280;23642;42.658;23.350;2023-03-03T11:41:29;48786.97;;;-146.31;93.13
2036;BME280;23642;42.658;23.350;2023-03-03T11:44:03;48747.81;;;-146.31;93.16
2036;BME280;23642;42.658;23.350;2023-03-03T11:46:37;48708.66;;;-146.31;93.76
2036;BME280;23642;42.658;23.350;2023-03-03T11:49:08;48675.66;;;-146.31;93.67
2036;BME280;23642;42.658;23.350;2023-03-03T11:51:48;48620.00;;;-146.31;94.03
2036;BME280;23642;42.658;23.350;2023-03-03T11:54:19;48582.91;;;-146.31;94.37
2036;BME280;23642;42.658;23.350;2023-03-03T11:56:48;48488.09;;;-146.31;94.56
2036;BME280;23642;42.658;23.350;2023-03-03T12:02:38;48455.13;;;-146.31;94.44
2036;BME280;23642;42.658;23.350;2023-03-03T12:05:16;48514.88;;;-146.31;94.01
2036;BME280;23642;42.658;23.350;2023-03-03T12:07:56;48479.84;;;-146.31;94.80
2036;BME280;23642;42.658;23.350;2023-03-03T12:10:31;48492.22;;;-146.31;94.14
2036;BME280;23642;42.658;23.350;2023-03-03T12:13:04;48461.31;;;-146.31;94.43
2036;BME280;23642;42.658;23.350;2023-03-03T12:15:36;48519.00;;;-146.31;93.34
2036;BME280;23642;42.658;23.350;2023-03-03T12:18:30;48527.25;;;-146.31;93.69
2036;BME280;23642;42.658;23.350;2023-03-03T12:21:14;48490.16;;;-146.31;93.76
2036;BME280;23642;42.658;23.350;2023-03-03T12:23:55;48547.88;;;-146.31;92.88
2036;BME280;23642;42.658;23.350;2023-03-03T12:26:32;48560.25;;;-146.31;93.57
2036;BME280;23642;42.658;23.350;2023-03-03T12:29:13;48521.06;;;-146.31;93.44
2036;BME280;23642;42.658;23.350;2023-03-03T12:31:49;48516.94;;;-146.31;93.28
2036;BME280;23642;42.658;23.350;2023-03-03T12:34:25;48562.31;;;-146.31;92.33
2036;BME280;23642;42.658;23.350;2023-03-03T12:37:15;48599.41;;;-146.31;92.28
2036;BME280;23642;42.658;23.350;2023-03-03T12:39:53;48516.94;;;-146.31;93.91
2036;BME280;23642;42.658;23.350;2023-03-03T12:42:33;48492.22;;;-146.31;93.54
2036;BME280;23642;42.658;23.350;2023-03-03T12:45:13;48535.50;;;-146.31;93.38
2036;BME280;23642;42.658;23.350;2023-03-03T12:47:50;48451.00;;;-146.31;94.37
2036;BME280;23642;42.658;23.350;2023-03-03T12:50:30;48352.06;;;-146.31;94.94
2036;BME280;23642;42.658;23.350;2023-03-03T12:53:04;48319.09;;;-146.31;95.37
2036;BME280;23642;42.658;23.350;2023-03-03T12:55:45;48230.44;;;-146.31;95.96
2036;BME280;23642;42.658;23.350;2023-03-03T12:58:18;48168.63;;;-146.31;96.52
2036;BME280;23642;42.658;23.350;2023-03-03T13:00:58;48009.94;;;-146.31;97.21
2036;BME280;23642;42.658;23.350;2023-03-03T13:03:37;47884.22;;;-146.31;97.54
2036;BME280;23642;42.658;23.350;2023-03-03T13:06:13;47696.69;;;-146.31;98.37
2036;BME280;23642;42.658;23.350;2023-03-03T13:08:58;47467.97;;;-146.31;99.33